Flugplatz Marville (LFYK)

Hier findest Du alle Informationen zum Flugplatz Marville (LFYK).

Informationen für Piloten zum Flugplatz Marville

Hier findest Du alle relevanten Informationen, die Du als Pilot benötigst, um Marville anzufliegen.

Flugplatz: Marville ICAO-Code: LFYK
Frequenz Turm: 123.500 Mhz GAFOR Gebiet: 44
Frequenz Ground: 123.500 Mhz Mogas: nein
Platzrunde: N 1500 ft Landegebühr: 0,00 €
Platzhöhe: - Sunrise: 03:30 Uhr UTC
Pisten: 12/30 - 2.500 m x 40 m, ASPH Sunset: 19:50 Uhr UTC

Mitglieder, die in Marville fliegen

Flugwetter am Flugplatz Marville

Die METAR Information stammen aus EDDR (126.32 km entfernt).

METAR Code:
2021/06/21 22:20
EDDR 212220Z 12005KT CAVOK 16/15 Q1011

Flugschulen am Flugplatz Marville

Am Flugplatz Marville gibt es leider keine Flugschule.

Benachbarte Flugplätze und Flugschulen

Es gibt 2 weitere Flugplätze in einem Umkreis von 50 km um den Flugplatz Marville.

Jetzt anmelden

Passwort vergessen

Umfrage Archiv

Seid Ihr aufgrund von Corona im Jahr 2020 mehr oder weniger geflogen als im Jahr zuvor?

weniger
56.5 %
gleich viel
26.3 %
mehr
17.3 %
Stimmen: 255 | Diskussion
Anzeige: Roland Aircraft
Statistik Alle Mitglieder

Aktuell sind 77 Besucher online, davon 3 Mitglieder und 74 Gäste.


Mitglieder online:
HansOtto  JPM  Excalibur93 

Anzeige: VFR Sprechfunk Simulator Anzeige: Pocket FMS